sensor_id;sensor_type;location;lat;lon;timestamp;P1;durP1;ratioP1;P2;durP2;ratioP2
7049;SDS011;22263;52.260;10.548;2023-03-22T00:02:14;0.30;;;0.30;;
7049;SDS011;22263;52.260;10.548;2023-03-22T00:04:44;0.40;;;0.40;;
7049;SDS011;22263;52.260;10.548;2023-03-22T00:07:14;0.40;;;0.40;;
7049;SDS011;22263;52.260;10.548;2023-03-22T00:09:43;0.40;;;0.40;;
7049;SDS011;22263;52.260;10.548;2023-03-22T00:12:13;0.40;;;0.40;;
7049;SDS011;22263;52.260;10.548;2023-03-22T00:14:46;0.40;;;0.40;;
7049;SDS011;22263;52.260;10.548;2023-03-22T00:17:17;0.40;;;0.40;;
7049;SDS011;22263;52.260;10.548;2023-03-22T00:19:48;0.40;;;0.40;;
7049;SDS011;22263;52.260;10.548;2023-03-22T00:22:19;0.60;;;0.60;;
7049;SDS011;22263;52.260;10.548;2023-03-22T00:24:49;0.50;;;0.50;;
7049;SDS011;22263;52.260;10.548;2023-03-22T00:27:19;0.55;;;0.55;;
7049;SDS011;22263;52.260;10.548;2023-03-22T00:29:52;0.50;;;0.50;;
7049;SDS011;22263;52.260;10.548;2023-03-22T00:32:23;0.50;;;0.50;;
7049;SDS011;22263;52.260;10.548;2023-03-22T00:34:54;0.60;;;0.60;;
7049;SDS011;22263;52.260;10.548;2023-03-22T00:37:26;0.40;;;0.40;;
7049;SDS011;22263;52.260;10.548;2023-03-22T00:40:00;0.40;;;0.40;;
7049;SDS011;22263;52.260;10.548;2023-03-22T00:42:30;0.40;;;0.40;;
7049;SDS011;22263;52.260;10.548;2023-03-22T00:45:02;0.40;;;0.40;;
7049;SDS011;22263;52.260;10.548;2023-03-22T00:47:34;0.50;;;0.50;;
7049;SDS011;22263;52.260;10.548;2023-03-22T00:50:04;0.47;;;0.47;;
7049;SDS011;22263;52.260;10.548;2023-03-22T00:52:36;0.40;;;0.40;;
7049;SDS011;22263;52.260;10.548;2023-03-22T00:55:06;0.47;;;0.47;;
7049;SDS011;22263;52.260;10.548;2023-03-22T00:57:36;0.40;;;0.40;;
7049;SDS011;22263;52.260;10.548;2023-03-22T01:00:10;0.38;;;0.38;;
7049;SDS011;22263;52.260;10.548;2023-03-22T01:02:43;0.40;;;0.40;;
7049;SDS011;22263;52.260;10.548;2023-03-22T01:05:17;0.40;;;0.40;;
7049;SDS011;22263;52.260;10.548;2023-03-22T01:07:47;0.40;;;0.40;;
7049;SDS011;22263;52.260;10.548;2023-03-22T01:10:20;0.40;;;0.40;;
7049;SDS011;22263;52.260;10.548;2023-03-22T01:12:50;0.45;;;0.45;;
7049;SDS011;22263;52.260;10.548;2023-03-22T01:15:24;0.57;;;0.57;;
7049;SDS011;22263;52.260;10.548;2023-03-22T01:18:02;0.50;;;0.50;;
7049;SDS011;22263;52.260;10.548;2023-03-22T01:20:32;0.40;;;0.40;;
7049;SDS011;22263;52.260;10.548;2023-03-22T01:23:01;0.40;;;0.40;;
7049;SDS011;22263;52.260;10.548;2023-03-22T01:25:31;0.40;;;0.40;;
7049;SDS011;22263;52.260;10.548;2023-03-22T01:27:59;0.40;;;0.40;;
7049;SDS011;22263;52.260;10.548;2023-03-22T01:30:29;0.40;;;0.40;;
7049;SDS011;22263;52.260;10.548;2023-03-22T01:32:57;0.40;;;0.40;;
7049;SDS011;22263;52.260;10.548;2023-03-22T01:35:28;0.40;;;0.40;;
7049;SDS011;22263;52.260;10.548;2023-03-22T01:37:58;0.40;;;0.40;;
7049;SDS011;22263;52.260;10.548;2023-03-22T01:40:26;0.40;;;0.40;;
7049;SDS011;22263;52.260;10.548;2023-03-22T01:42:55;0.40;;;0.40;;
7049;SDS011;22263;52.260;10.548;2023-03-22T01:45:35;0.40;;;0.40;;
7049;SDS011;22263;52.260;10.548;2023-03-22T01:48:17;0.50;;;0.50;;
7049;SDS011;22263;52.260;10.548;2023-03-22T01:50:53;0.40;;;0.40;;
7049;SDS011;22263;52.260;10.548;2023-03-22T01:53:31;0.35;;;0.35;;
7049;SDS011;22263;52.260;10.548;2023-03-22T01:56:04;0.40;;;0.40;;
7049;SDS011;22263;52.260;10.548;2023-03-22T01:58:35;0.40;;;0.40;;
7049;SDS011;22263;52.260;10.548;2023-03-22T02:01:06;0.40;;;0.40;;
7049;SDS011;22263;52.260;10.548;2023-03-22T02:03:49;0.40;;;0.40;;
7049;SDS011;22263;52.260;10.548;2023-03-22T02:06:24;0.40;;;0.40;;
7049;SDS011;22263;52.260;10.548;2023-03-22T02:09:01;0.50;;;0.50;;
7049;SDS011;22263;52.260;10.548;2023-03-22T02:11:31;0.40;;;0.40;;
7049;SDS011;22263;52.260;10.548;2023-03-22T02:14:15;0.40;;;0.40;;
7049;SDS011;22263;52.260;10.548;2023-03-22T02:17:02;0.30;;;0.30;;
7049;SDS011;22263;52.260;10.548;2023-03-22T02:26:03;0.40;;;0.40;;
7049;SDS011;22263;52.260;10.548;2023-03-22T02:28:48;0.40;;;0.40;;
7049;SDS011;22263;52.260;10.548;2023-03-22T02:31:26;0.38;;;0.38;;
7049;SDS011;22263;52.260;10.548;2023-03-22T02:37:14;0.50;;;0.50;;
7049;SDS011;22263;52.260;10.548;2023-03-22T02:40:13;0.40;;;0.40;;
7049;SDS011;22263;52.260;10.548;2023-03-22T02:42:51;0.50;;;0.50;;
7049;SDS011;22263;52.260;10.548;2023-03-22T02:45:26;0.50;;;0.50;;
7049;SDS011;22263;52.260;10.548;2023-03-22T02:48:02;0.40;;;0.40;;
7049;SDS011;22263;52.260;10.548;2023-03-22T02:50:36;0.40;;;0.40;;
7049;SDS011;22263;52.260;10.548;2023-03-22T02:53:09;0.30;;;0.30;;
7049;SDS011;22263;52.260;10.548;2023-03-22T02:55:47;0.40;;;0.40;;
7049;SDS011;22263;52.260;10.548;2023-03-22T02:58:22;0.40;;;0.40;;
7049;SDS011;22263;52.260;10.548;2023-03-22T03:00:54;0.32;;;0.32;;
7049;SDS011;22263;52.260;10.548;2023-03-22T03:03:27;0.40;;;0.40;;
7049;SDS011;22263;52.260;10.548;2023-03-22T03:05:58;0.40;;;0.40;;
7049;SDS011;22263;52.260;10.548;2023-03-22T03:08:30;0.43;;;0.43;;
7049;SDS011;22263;52.260;10.548;2023-03-22T03:11:01;0.40;;;0.40;;
7049;SDS011;22263;52.260;10.548;2023-03-22T03:13:30;0.40;;;0.40;;
7049;SDS011;22263;52.260;10.548;2023-03-22T03:15:58;0.40;;;0.40;;
7049;SDS011;22263;52.260;10.548;2023-03-22T03:18:36;0.40;;;0.40;;
7049;SDS011;22263;52.260;10.548;2023-03-22T03:21:13;0.40;;;0.40;;
7049;SDS011;22263;52.260;10.548;2023-03-22T03:23:55;0.40;;;0.40;;
7049;SDS011;22263;52.260;10.548;2023-03-22T03:26:37;0.30;;;0.30;;
7049;SDS011;22263;52.260;10.548;2023-03-22T03:29:10;0.40;;;0.40;;
7049;SDS011;22263;52.260;10.548;2023-03-22T03:31:46;0.40;;;0.40;;
7049;SDS011;22263;52.260;10.548;2023-03-22T03:34:20;0.40;;;0.40;;
7049;SDS011;22263;52.260;10.548;2023-03-22T03:36:53;0.40;;;0.40;;
7049;SDS011;22263;52.260;10.548;2023-03-22T03:39:25;0.40;;;0.40;;
7049;SDS011;22263;52.260;10.548;2023-03-22T03:41:59;0.40;;;0.40;;
7049;SDS011;22263;52.260;10.548;2023-03-22T03:44:29;0.40;;;0.40;;
7049;SDS011;22263;52.260;10.548;2023-03-22T03:47:00;0.40;;;0.40;;
7049;SDS011;22263;52.260;10.548;2023-03-22T03:49:29;0.43;;;0.43;;
7049;SDS011;22263;52.260;10.548;2023-03-22T03:51:58;0.50;;;0.50;;
7049;SDS011;22263;52.260;10.548;2023-03-22T03:54:27;0.40;;;0.40;;
7049;SDS011;22263;52.260;10.548;2023-03-22T03:56:56;0.40;;;0.40;;
7049;SDS011;22263;52.260;10.548;2023-03-22T03:59:26;0.40;;;0.40;;
7049;SDS011;22263;52.260;10.548;2023-03-22T04:01:57;0.40;;;0.40;;
7049;SDS011;22263;52.260;10.548;2023-03-22T04:04:29;0.40;;;0.40;;
7049;SDS011;22263;52.260;10.548;2023-03-22T04:07:01;0.40;;;0.40;;
7049;SDS011;22263;52.260;10.548;2023-03-22T04:09:33;0.45;;;0.45;;
7049;SDS011;22263;52.260;10.548;2023-03-22T04:12:14;0.47;;;0.47;;
7049;SDS011;22263;52.260;10.548;2023-03-22T04:15:00;0.40;;;0.40;;
7049;SDS011;22263;52.260;10.548;2023-03-22T04:17:29;0.40;;;0.40;;
7049;SDS011;22263;52.260;10.548;2023-03-22T04:19:58;0.40;;;0.40;;
7049;SDS011;22263;52.260;10.548;2023-03-22T04:22:33;0.50;;;0.50;;
7049;SDS011;22263;52.260;10.548;2023-03-22T04:25:03;0.40;;;0.40;;
7049;SDS011;22263;52.260;10.548;2023-03-22T04:27:39;0.40;;;0.40;;
7049;SDS011;22263;52.260;10.548;2023-03-22T04:30:13;0.40;;;0.40;;
7049;SDS011;22263;52.260;10.548;2023-03-22T04:33:12;0.32;;;0.32;;
7049;SDS011;22263;52.260;10.548;2023-03-22T04:36:05;0.40;;;0.40;;
7049;SDS011;22263;52.260;10.548;2023-03-22T04:38:46;0.43;;;0.43;;
7049;SDS011;22263;52.260;10.548;2023-03-22T04:41:19;0.38;;;0.38;;
7049;SDS011;22263;52.260;10.548;2023-03-22T04:43:50;0.30;;;0.30;;
7049;SDS011;22263;52.260;10.548;2023-03-22T04:46:21;0.40;;;0.40;;
7049;SDS011;22263;52.260;10.548;2023-03-22T04:49:00;0.40;;;0.40;;
7049;SDS011;22263;52.260;10.548;2023-03-22T04:51:32;0.40;;;0.40;;
7049;SDS011;22263;52.260;10.548;2023-03-22T04:54:14;0.40;;;0.40;;
7049;SDS011;22263;52.260;10.548;2023-03-22T04:56:43;0.40;;;0.40;;
7049;SDS011;22263;52.260;10.548;2023-03-22T04:59:13;0.40;;;0.40;;
7049;SDS011;22263;52.260;10.548;2023-03-22T05:01:46;0.40;;;0.40;;
7049;SDS011;22263;52.260;10.548;2023-03-22T05:04:19;0.40;;;0.40;;
7049;SDS011;22263;52.260;10.548;2023-03-22T05:06:54;0.50;;;0.50;;
7049;SDS011;22263;52.260;10.548;2023-03-22T05:09:29;0.50;;;0.50;;
7049;SDS011;22263;52.260;10.548;2023-03-22T05:11:58;0.38;;;0.38;;
7049;SDS011;22263;52.260;10.548;2023-03-22T05:14:34;0.30;;;0.30;;
7049;SDS011;22263;52.260;10.548;2023-03-22T05:17:06;0.50;;;0.50;;
7049;SDS011;22263;52.260;10.548;2023-03-22T05:19:37;0.40;;;0.40;;
7049;SDS011;22263;52.260;10.548;2023-03-22T05:22:05;0.40;;;0.40;;
7049;SDS011;22263;52.260;10.548;2023-03-22T05:24:42;0.40;;;0.40;;
7049;SDS011;22263;52.260;10.548;2023-03-22T05:27:15;0.30;;;0.30;;
7049;SDS011;22263;52.260;10.548;2023-03-22T05:30:03;0.38;;;0.38;;
7049;SDS011;22263;52.260;10.548;2023-03-22T05:32:58;0.40;;;0.40;;
7049;SDS011;22263;52.260;10.548;2023-03-22T05:35:29;0.38;;;0.38;;
7049;SDS011;22263;52.260;10.548;2023-03-22T05:38:00;0.40;;;0.40;;
7049;SDS011;22263;52.260;10.548;2023-03-22T05:40:31;0.47;;;0.47;;
7049;SDS011;22263;52.260;10.548;2023-03-22T05:43:00;0.47;;;0.47;;
7049;SDS011;22263;52.260;10.548;2023-03-22T05:45:28;0.50;;;0.50;;
7049;SDS011;22263;52.260;10.548;2023-03-22T05:48:09;0.40;;;0.40;;
7049;SDS011;22263;52.260;10.548;2023-03-22T05:50:38;0.50;;;0.50;;
7049;SDS011;22263;52.260;10.548;2023-03-22T05:53:08;0.40;;;0.40;;
7049;SDS011;22263;52.260;10.548;2023-03-22T05:55:54;0.40;;;0.40;;
7049;SDS011;22263;52.260;10.548;2023-03-22T05:58:27;0.40;;;0.40;;
7049;SDS011;22263;52.260;10.548;2023-03-22T06:00:56;0.40;;;0.40;;
7049;SDS011;22263;52.260;10.548;2023-03-22T06:03:50;0.40;;;0.40;;
7049;SDS011;22263;52.260;10.548;2023-03-22T06:06:27;0.40;;;0.40;;
7049;SDS011;22263;52.260;10.548;2023-03-22T06:09:14;0.40;;;0.40;;
7049;SDS011;22263;52.260;10.548;2023-03-22T06:11:48;0.40;;;0.40;;
7049;SDS011;22263;52.260;10.548;2023-03-22T06:14:17;0.40;;;0.40;;
7049;SDS011;22263;52.260;10.548;2023-03-22T06:17:04;0.40;;;0.40;;
7049;SDS011;22263;52.260;10.548;2023-03-22T06:19:35;0.40;;;0.40;;
7049;SDS011;22263;52.260;10.548;2023-03-22T06:22:05;0.47;;;0.47;;
7049;SDS011;22263;52.260;10.548;2023-03-22T06:24:35;0.40;;;0.40;;
7049;SDS011;22263;52.260;10.548;2023-03-22T06:27:07;0.40;;;0.40;;
7049;SDS011;22263;52.260;10.548;2023-03-22T06:29:38;0.40;;;0.40;;
7049;SDS011;22263;52.260;10.548;2023-03-22T06:32:07;0.35;;;0.35;;
7049;SDS011;22263;52.260;10.548;2023-03-22T06:34:37;0.40;;;0.40;;
7049;SDS011;22263;52.260;10.548;2023-03-22T06:37:07;0.40;;;0.40;;
7049;SDS011;22263;52.260;10.548;2023-03-22T06:39:39;0.40;;;0.40;;
7049;SDS011;22263;52.260;10.548;2023-03-22T06:42:08;0.30;;;0.30;;
7049;SDS011;22263;52.260;10.548;2023-03-22T06:44:36;0.40;;;0.40;;
7049;SDS011;22263;52.260;10.548;2023-03-22T06:47:12;0.60;;;0.60;;
7049;SDS011;22263;52.260;10.548;2023-03-22T06:49:45;0.30;;;0.30;;
7049;SDS011;22263;52.260;10.548;2023-03-22T06:52:22;0.40;;;0.40;;
7049;SDS011;22263;52.260;10.548;2023-03-22T06:54:51;0.40;;;0.40;;
7049;SDS011;22263;52.260;10.548;2023-03-22T06:57:19;0.40;;;0.40;;
7049;SDS011;22263;52.260;10.548;2023-03-22T06:59:48;0.40;;;0.40;;
7049;SDS011;22263;52.260;10.548;2023-03-22T07:02:16;0.40;;;0.40;;
7049;SDS011;22263;52.260;10.548;2023-03-22T07:05:07;0.40;;;0.40;;
7049;SDS011;22263;52.260;10.548;2023-03-22T07:07:36;0.30;;;0.30;;
7049;SDS011;22263;52.260;10.548;2023-03-22T07:10:05;0.32;;;0.32;;
7049;SDS011;22263;52.260;10.548;2023-03-22T07:12:34;0.40;;;0.40;;
7049;SDS011;22263;52.260;10.548;2023-03-22T07:15:09;0.30;;;0.30;;
7049;SDS011;22263;52.260;10.548;2023-03-22T07:17:47;0.30;;;0.30;;
7049;SDS011;22263;52.260;10.548;2023-03-22T07:20:18;0.40;;;0.40;;
7049;SDS011;22263;52.260;10.548;2023-03-22T07:22:48;0.40;;;0.40;;
7049;SDS011;22263;52.260;10.548;2023-03-22T07:25:18;0.30;;;0.30;;
7049;SDS011;22263;52.260;10.548;2023-03-22T07:27:53;0.30;;;0.30;;
7049;SDS011;22263;52.260;10.548;2023-03-22T07:30:22;0.30;;;0.30;;
7049;SDS011;22263;52.260;10.548;2023-03-22T07:32:50;0.40;;;0.40;;
7049;SDS011;22263;52.260;10.548;2023-03-22T07:35:21;0.30;;;0.30;;
7049;SDS011;22263;52.260;10.548;2023-03-22T07:37:52;0.40;;;0.40;;
7049;SDS011;22263;52.260;10.548;2023-03-22T07:40:26;0.40;;;0.40;;
7049;SDS011;22263;52.260;10.548;2023-03-22T07:42:55;0.30;;;0.30;;
7049;SDS011;22263;52.260;10.548;2023-03-22T07:45:41;0.38;;;0.38;;
7049;SDS011;22263;52.260;10.548;2023-03-22T07:48:47;0.30;;;0.30;;
7049;SDS011;22263;52.260;10.548;2023-03-22T07:51:43;0.43;;;0.43;;
7049;SDS011;22263;52.260;10.548;2023-03-22T07:54:12;0.40;;;0.40;;
7049;SDS011;22263;52.260;10.548;2023-03-22T07:56:58;0.40;;;0.40;;
7049;SDS011;22263;52.260;10.548;2023-03-22T07:59:27;0.32;;;0.32;;
7049;SDS011;22263;52.260;10.548;2023-03-22T08:01:56;0.30;;;0.30;;
7049;SDS011;22263;52.260;10.548;2023-03-22T08:04:30;0.32;;;0.32;;
7049;SDS011;22263;52.260;10.548;2023-03-22T08:07:21;0.30;;;0.30;;
7049;SDS011;22263;52.260;10.548;2023-03-22T08:09:50;0.30;;;0.30;;
7049;SDS011;22263;52.260;10.548;2023-03-22T08:12:18;0.40;;;0.40;;
7049;SDS011;22263;52.260;10.548;2023-03-22T08:14:54;0.30;;;0.30;;
7049;SDS011;22263;52.260;10.548;2023-03-22T08:17:25;0.28;;;0.28;;
7049;SDS011;22263;52.260;10.548;2023-03-22T08:19:55;0.30;;;0.30;;
7049;SDS011;22263;52.260;10.548;2023-03-22T08:22:39;0.30;;;0.30;;
7049;SDS011;22263;52.260;10.548;2023-03-22T08:25:26;0.30;;;0.30;;
7049;SDS011;22263;52.260;10.548;2023-03-22T08:28:03;0.30;;;0.30;;
7049;SDS011;22263;52.260;10.548;2023-03-22T08:30:32;0.30;;;0.30;;
7049;SDS011;22263;52.260;10.548;2023-03-22T08:33:01;0.30;;;0.30;;
7049;SDS011;22263;52.260;10.548;2023-03-22T08:35:31;0.30;;;0.30;;
7049;SDS011;22263;52.260;10.548;2023-03-22T08:38:02;0.30;;;0.30;;
7049;SDS011;22263;52.260;10.548;2023-03-22T08:40:39;0.30;;;0.30;;
7049;SDS011;22263;52.260;10.548;2023-03-22T08:43:07;0.30;;;0.30;;
7049;SDS011;22263;52.260;10.548;2023-03-22T08:45:36;0.30;;;0.30;;
7049;SDS011;22263;52.260;10.548;2023-03-22T08:48:10;0.30;;;0.30;;
7049;SDS011;22263;52.260;10.548;2023-03-22T08:50:57;0.30;;;0.30;;
7049;SDS011;22263;52.260;10.548;2023-03-22T08:53:37;0.30;;;0.30;;
7049;SDS011;22263;52.260;10.548;2023-03-22T08:56:31;0.30;;;0.30;;
7049;SDS011;22263;52.260;10.548;2023-03-22T08:59:21;0.30;;;0.30;;
7049;SDS011;22263;52.260;10.548;2023-03-22T09:02:11;0.30;;;0.30;;
7049;SDS011;22263;52.260;10.548;2023-03-22T09:04:40;0.30;;;0.30;;
7049;SDS011;22263;52.260;10.548;2023-03-22T09:07:09;0.30;;;0.30;;
7049;SDS011;22263;52.260;10.548;2023-03-22T09:09:46;0.30;;;0.30;;
7049;SDS011;22263;52.260;10.548;2023-03-22T09:12:15;0.30;;;0.30;;
7049;SDS011;22263;52.260;10.548;2023-03-22T09:14:44;0.30;;;0.30;;
7049;SDS011;22263;52.260;10.548;2023-03-22T09:17:14;0.30;;;0.30;;
7049;SDS011;22263;52.260;10.548;2023-03-22T09:19:46;0.30;;;0.30;;
7049;SDS011;22263;52.260;10.548;2023-03-22T09:22:14;0.30;;;0.30;;
7049;SDS011;22263;52.260;10.548;2023-03-22T09:24:48;0.30;;;0.30;;
7049;SDS011;22263;52.260;10.548;2023-03-22T09:27:16;0.30;;;0.30;;
7049;SDS011;22263;52.260;10.548;2023-03-22T09:29:45;0.30;;;0.30;;
7049;SDS011;22263;52.260;10.548;2023-03-22T09:32:16;0.20;;;0.20;;
7049;SDS011;22263;52.260;10.548;2023-03-22T09:34:52;0.20;;;0.20;;
7049;SDS011;22263;52.260;10.548;2023-03-22T09:37:22;0.30;;;0.30;;
7049;SDS011;22263;52.260;10.548;2023-03-22T09:39:58;0.30;;;0.30;;
7049;SDS011;22263;52.260;10.548;2023-03-22T09:42:30;0.30;;;0.30;;
7049;SDS011;22263;52.260;10.548;2023-03-22T09:45:06;0.22;;;0.22;;
7049;SDS011;22263;52.260;10.548;2023-03-22T09:47:41;0.30;;;0.30;;
7049;SDS011;22263;52.260;10.548;2023-03-22T09:50:12;0.30;;;0.30;;
7049;SDS011;22263;52.260;10.548;2023-03-22T09:52:42;0.30;;;0.30;;
7049;SDS011;22263;52.260;10.548;2023-03-22T09:55:18;0.30;;;0.30;;
7049;SDS011;22263;52.260;10.548;2023-03-22T09:57:49;0.28;;;0.28;;
7049;SDS011;22263;52.260;10.548;2023-03-22T10:00:26;0.30;;;0.30;;
7049;SDS011;22263;52.260;10.548;2023-03-22T10:03:07;0.30;;;0.30;;
7049;SDS011;22263;52.260;10.548;2023-03-22T10:05:44;0.30;;;0.30;;
7049;SDS011;22263;52.260;10.548;2023-03-22T10:08:19;0.30;;;0.30;;
7049;SDS011;22263;52.260;10.548;2023-03-22T10:10:57;0.30;;;0.30;;
7049;SDS011;22263;52.260;10.548;2023-03-22T10:13:28;0.30;;;0.30;;
7049;SDS011;22263;52.260;10.548;2023-03-22T10:16:05;0.30;;;0.30;;
7049;SDS011;22263;52.260;10.548;2023-03-22T10:18:39;0.30;;;0.30;;
7049;SDS011;22263;52.260;10.548;2023-03-22T10:21:12;0.30;;;0.30;;
7049;SDS011;22263;52.260;10.548;2023-03-22T10:23:43;0.30;;;0.30;;
7049;SDS011;22263;52.260;10.548;2023-03-22T10:26:17;0.30;;;0.30;;
7049;SDS011;22263;52.260;10.548;2023-03-22T10:28:51;0.30;;;0.30;;
7049;SDS011;22263;52.260;10.548;2023-03-22T10:31:29;0.30;;;0.30;;
7049;SDS011;22263;52.260;10.548;2023-03-22T10:33:58;0.30;;;0.30;;
7049;SDS011;22263;52.260;10.548;2023-03-22T10:36:32;0.30;;;0.30;;
7049;SDS011;22263;52.260;10.548;2023-03-22T10:39:04;0.30;;;0.30;;
7049;SDS011;22263;52.260;10.548;2023-03-22T10:41:43;0.30;;;0.30;;
7049;SDS011;22263;52.260;10.548;2023-03-22T10:44:14;0.30;;;0.30;;
7049;SDS011;22263;52.260;10.548;2023-03-22T10:46:46;0.30;;;0.30;;
7049;SDS011;22263;52.260;10.548;2023-03-22T10:49:17;0.30;;;0.30;;
7049;SDS011;22263;52.260;10.548;2023-03-22T10:51:53;0.30;;;0.30;;
7049;SDS011;22263;52.260;10.548;2023-03-22T10:54:26;0.30;;;0.30;;
7049;SDS011;22263;52.260;10.548;2023-03-22T10:56:57;0.30;;;0.30;;
7049;SDS011;22263;52.260;10.548;2023-03-22T10:59:41;0.30;;;0.30;;
7049;SDS011;22263;52.260;10.548;2023-03-22T11:02:15;0.38;;;0.38;;
7049;SDS011;22263;52.260;10.548;2023-03-22T11:04:46;0.30;;;0.30;;
7049;SDS011;22263;52.260;10.548;2023-03-22T11:07:26;0.30;;;0.30;;
7049;SDS011;22263;52.260;10.548;2023-03-22T11:09:58;0.20;;;0.20;;
7049;SDS011;22263;52.260;10.548;2023-03-22T11:12:41;0.30;;;0.30;;
7049;SDS011;22263;52.260;10.548;2023-03-22T11:15:21;0.30;;;0.30;;
7049;SDS011;22263;52.260;10.548;2023-03-22T11:17:54;0.20;;;0.20;;
7049;SDS011;22263;52.260;10.548;2023-03-22T11:20:27;0.30;;;0.30;;
7049;SDS011;22263;52.260;10.548;2023-03-22T11:22:56;0.20;;;0.20;;
7049;SDS011;22263;52.260;10.548;2023-03-22T11:25:29;0.20;;;0.20;;
7049;SDS011;22263;52.260;10.548;2023-03-22T11:28:07;0.30;;;0.30;;
7049;SDS011;22263;52.260;10.548;2023-03-22T11:30:56;0.30;;;0.30;;
7049;SDS011;22263;52.260;10.548;2023-03-22T11:33:26;0.30;;;0.30;;
7049;SDS011;22263;52.260;10.548;2023-03-22T11:35:55;0.30;;;0.30;;
7049;SDS011;22263;52.260;10.548;2023-03-22T11:38:25;0.30;;;0.30;;
7049;SDS011;22263;52.260;10.548;2023-03-22T11:40:58;0.30;;;0.30;;
7049;SDS011;22263;52.260;10.548;2023-03-22T11:43:33;0.30;;;0.30;;
7049;SDS011;22263;52.260;10.548;2023-03-22T11:46:03;0.30;;;0.30;;
7049;SDS011;22263;52.260;10.548;2023-03-22T11:48:34;0.30;;;0.30;;
7049;SDS011;22263;52.260;10.548;2023-03-22T11:51:05;0.30;;;0.30;;
7049;SDS011;22263;52.260;10.548;2023-03-22T11:53:37;0.30;;;0.30;;
7049;SDS011;22263;52.260;10.548;2023-03-22T11:56:08;0.30;;;0.30;;
7049;SDS011;22263;52.260;10.548;2023-03-22T11:58:47;0.25;;;0.25;;
7049;SDS011;22263;52.260;10.548;2023-03-22T12:01:30;0.30;;;0.30;;
7049;SDS011;22263;52.260;10.548;2023-03-22T12:04:04;0.30;;;0.30;;
7049;SDS011;22263;52.260;10.548;2023-03-22T12:06:37;0.30;;;0.30;;
7049;SDS011;22263;52.260;10.548;2023-03-22T12:09:09;0.20;;;0.20;;
7049;SDS011;22263;52.260;10.548;2023-03-22T12:11:49;0.30;;;0.30;;
7049;SDS011;22263;52.260;10.548;2023-03-22T12:14:23;0.30;;;0.30;;
7049;SDS011;22263;52.260;10.548;2023-03-22T12:16:57;0.30;;;0.30;;
7049;SDS011;22263;52.260;10.548;2023-03-22T12:19:36;0.30;;;0.30;;
7049;SDS011;22263;52.260;10.548;2023-03-22T12:22:11;0.20;;;0.20;;
7049;SDS011;22263;52.260;10.548;2023-03-22T12:24:42;0.22;;;0.22;;
7049;SDS011;22263;52.260;10.548;2023-03-22T12:27:13;0.30;;;0.30;;
7049;SDS011;22263;52.260;10.548;2023-03-22T12:29:47;0.20;;;0.20;;
7049;SDS011;22263;52.260;10.548;2023-03-22T12:32:22;0.30;;;0.30;;
7049;SDS011;22263;52.260;10.548;2023-03-22T12:34:53;0.28;;;0.28;;
7049;SDS011;22263;52.260;10.548;2023-03-22T12:37:43;0.30;;;0.30;;
7049;SDS011;22263;52.260;10.548;2023-03-22T12:40:18;0.30;;;0.30;;
7049;SDS011;22263;52.260;10.548;2023-03-22T12:42:52;0.30;;;0.30;;
7049;SDS011;22263;52.260;10.548;2023-03-22T12:45:30;0.30;;;0.30;;
7049;SDS011;22263;52.260;10.548;2023-03-22T12:48:04;0.30;;;0.30;;
7049;SDS011;22263;52.260;10.548;2023-03-22T12:50:40;0.30;;;0.30;;
7049;SDS011;22263;52.260;10.548;2023-03-22T12:53:12;0.20;;;0.20;;
7049;SDS011;22263;52.260;10.548;2023-03-22T12:55:43;0.30;;;0.30;;
7049;SDS011;22263;52.260;10.548;2023-03-22T12:58:15;0.30;;;0.30;;
7049;SDS011;22263;52.260;10.548;2023-03-22T13:00:50;0.28;;;0.28;;
7049;SDS011;22263;52.260;10.548;2023-03-22T13:03:24;0.30;;;0.30;;
7049;SDS011;22263;52.260;10.548;2023-03-22T13:05:58;0.20;;;0.20;;
7049;SDS011;22263;52.260;10.548;2023-03-22T13:11:41;0.30;;;0.30;;
7049;SDS011;22263;52.260;10.548;2023-03-22T13:14:11;0.30;;;0.30;;
7049;SDS011;22263;52.260;10.548;2023-03-22T13:17:02;0.30;;;0.30;;
7049;SDS011;22263;52.260;10.548;2023-03-22T13:19:34;0.25;;;0.25;;
7049;SDS011;22263;52.260;10.548;2023-03-22T13:22:17;0.30;;;0.30;;
7049;SDS011;22263;52.260;10.548;2023-03-22T13:25:06;0.30;;;0.30;;
7049;SDS011;22263;52.260;10.548;2023-03-22T13:28:01;0.20;;;0.20;;
7049;SDS011;22263;52.260;10.548;2023-03-22T13:30:48;0.30;;;0.30;;
7049;SDS011;22263;52.260;10.548;2023-03-22T13:33:19;0.30;;;0.30;;
7049;SDS011;22263;52.260;10.548;2023-03-22T13:35:52;0.30;;;0.30;;
7049;SDS011;22263;52.260;10.548;2023-03-22T13:38:24;0.30;;;0.30;;
7049;SDS011;22263;52.260;10.548;2023-03-22T13:40:58;0.30;;;0.30;;
7049;SDS011;22263;52.260;10.548;2023-03-22T13:43:32;0.30;;;0.30;;
7049;SDS011;22263;52.260;10.548;2023-03-22T13:48:56;0.30;;;0.30;;
7049;SDS011;22263;52.260;10.548;2023-03-22T13:51:54;0.30;;;0.30;;
7049;SDS011;22263;52.260;10.548;2023-03-22T13:54:30;0.30;;;0.30;;
7049;SDS011;22263;52.260;10.548;2023-03-22T13:57:03;0.30;;;0.30;;
7049;SDS011;22263;52.260;10.548;2023-03-22T14:02:39;0.30;;;0.30;;
7049;SDS011;22263;52.260;10.548;2023-03-22T14:05:12;0.30;;;0.30;;
7049;SDS011;22263;52.260;10.548;2023-03-22T14:07:43;0.30;;;0.30;;
7049;SDS011;22263;52.260;10.548;2023-03-22T14:10:16;0.30;;;0.30;;
7049;SDS011;22263;52.260;10.548;2023-03-22T14:12:48;0.30;;;0.30;;
7049;SDS011;22263;52.260;10.548;2023-03-22T14:15:22;0.30;;;0.30;;
7049;SDS011;22263;52.260;10.548;2023-03-22T14:17:53;0.30;;;0.30;;
7049;SDS011;22263;52.260;10.548;2023-03-22T14:20:29;0.30;;;0.30;;
7049;SDS011;22263;52.260;10.548;2023-03-22T14:23:03;0.30;;;0.30;;
7049;SDS011;22263;52.260;10.548;2023-03-22T14:25:35;0.30;;;0.30;;
7049;SDS011;22263;52.260;10.548;2023-03-22T14:28:03;0.22;;;0.22;;
7049;SDS011;22263;52.260;10.548;2023-03-22T14:30:35;0.30;;;0.30;;
7049;SDS011;22263;52.260;10.548;2023-03-22T14:33:06;0.30;;;0.30;;
7049;SDS011;22263;52.260;10.548;2023-03-22T14:35:45;0.30;;;0.30;;
7049;SDS011;22263;52.260;10.548;2023-03-22T14:38:16;0.30;;;0.30;;
7049;SDS011;22263;52.260;10.548;2023-03-22T14:40:45;0.30;;;0.30;;
7049;SDS011;22263;52.260;10.548;2023-03-22T14:43:14;0.30;;;0.30;;
7049;SDS011;22263;52.260;10.548;2023-03-22T14:46:01;0.30;;;0.30;;
7049;SDS011;22263;52.260;10.548;2023-03-22T14:48:33;0.30;;;0.30;;
7049;SDS011;22263;52.260;10.548;2023-03-22T14:51:05;0.30;;;0.30;;
7049;SDS011;22263;52.260;10.548;2023-03-22T14:53:40;0.32;;;0.32;;
7049;SDS011;22263;52.260;10.548;2023-03-22T14:56:14;0.30;;;0.30;;
7049;SDS011;22263;52.260;10.548;2023-03-22T14:58:46;0.30;;;0.30;;
7049;SDS011;22263;52.260;10.548;2023-03-22T15:01:20;0.30;;;0.30;;
7049;SDS011;22263;52.260;10.548;2023-03-22T15:03:54;0.30;;;0.30;;
7049;SDS011;22263;52.260;10.548;2023-03-22T15:06:25;0.30;;;0.30;;
7049;SDS011;22263;52.260;10.548;2023-03-22T15:09:02;0.30;;;0.30;;
7049;SDS011;22263;52.260;10.548;2023-03-22T15:11:33;0.30;;;0.30;;
7049;SDS011;22263;52.260;10.548;2023-03-22T15:14:04;0.30;;;0.30;;
7049;SDS011;22263;52.260;10.548;2023-03-22T15:16:36;0.25;;;0.25;;
7049;SDS011;22263;52.260;10.548;2023-03-22T15:19:07;0.30;;;0.30;;
7049;SDS011;22263;52.260;10.548;2023-03-22T15:21:40;0.30;;;0.30;;
7049;SDS011;22263;52.260;10.548;2023-03-22T15:24:12;0.30;;;0.30;;
7049;SDS011;22263;52.260;10.548;2023-03-22T15:26:49;0.35;;;0.35;;
7049;SDS011;22263;52.260;10.548;2023-03-22T15:29:19;0.30;;;0.30;;
7049;SDS011;22263;52.260;10.548;2023-03-22T15:31:55;0.30;;;0.30;;
7049;SDS011;22263;52.260;10.548;2023-03-22T15:34:26;0.30;;;0.30;;
7049;SDS011;22263;52.260;10.548;2023-03-22T15:36:59;0.30;;;0.30;;
7049;SDS011;22263;52.260;10.548;2023-03-22T15:39:33;0.30;;;0.30;;
7049;SDS011;22263;52.260;10.548;2023-03-22T15:42:11;0.30;;;0.30;;
7049;SDS011;22263;52.260;10.548;2023-03-22T15:44:48;0.30;;;0.30;;
7049;SDS011;22263;52.260;10.548;2023-03-22T15:47:20;0.30;;;0.30;;
7049;SDS011;22263;52.260;10.548;2023-03-22T15:49:49;0.30;;;0.30;;